Time;durP1;ratioP1;P1;durP2;ratioP2;P2;SDS_P1;SDS_P2;PMS_P1;PMS_P2;Temp;Humidity;BMP_temperature;BMP_pressure;BME280_temperature;BME280_humidity;BME280_pressure;Samples;Min_cycle;Max_cycle;Signal;HPM_P1;HPM_P2
2022/09/21 00:00:23;;;;;;;4.43;1.75;;;;;;;;;;5068428;28;20048;-58
2022/09/21 00:02:49;;;;;;;4.50;1.67;;;;;;;;;;5067605;28;20067;-57
2022/09/21 00:05:16;;;;;;;8.90;1.80;;;;;;;;;;5068280;28;20044;-57
2022/09/21 00:07:42;;;;;;;6.13;1.80;;;;;;;;;;5049448;28;20070;-57
2022/09/21 00:10:09;;;;;;;8.90;2.47;;;;;;;;;;5068187;28;20051;-57
2022/09/21 00:12:37;;;;;;;8.40;2.20;;;;;;;;;;5068134;28;20087;-57
2022/09/21 00:15:05;;;;;;;6.38;1.88;;;;;;;;;;5068381;28;20394;-58
2022/09/21 00:17:32;;;;;;;6.97;2.00;;;;;;;;;;5067108;28;20048;-59
2022/09/21 00:20:00;;;;;;;5.20;1.67;;;;;;;;;;5068592;28;20066;-58
2022/09/21 00:22:27;;;;;;;9.38;2.30;;;;;;;;;;5067816;28;20529;-58
2022/09/21 00:24:53;;;;;;;7.53;1.95;;;;;;;;;;5067584;28;20098;-58
2022/09/21 00:27:19;;;;;;;3.40;1.92;;;;;;;;;;5068169;28;20044;-58
2022/09/21 00:29:45;;;;;;;5.40;1.45;;;;;;;;;;5067337;28;20502;-57
2022/09/21 00:32:11;;;;;;;5.65;1.30;;;;;;;;;;5067227;28;20063;-57
2022/09/21 00:34:37;;;;;;;4.20;1.40;;;;;;;;;;5067233;28;20040;-58
2022/09/21 00:37:04;;;;;;;4.18;1.33;;;;;;;;;;5049960;28;20052;-58
2022/09/21 00:39:30;;;;;;;5.95;1.80;;;;;;;;;;5068073;28;20049;-58
2022/09/21 00:41:56;;;;;;;4.20;1.15;;;;;;;;;;5067617;28;20040;-58
2022/09/21 00:44:31;;;;;;;4.82;1.58;;;;;;;;;;5067454;28;20040;-58
2022/09/21 00:47:01;;;;;;;4.80;1.27;;;;;;;;;;5066721;28;20301;-57
2022/09/21 00:49:27;;;;;;;3.38;1.48;;;;;;;;;;5049868;28;20051;-58
2022/09/21 00:51:55;;;;;;;4.93;1.10;;;;;;;;;;5067729;28;20044;-57
2022/09/21 00:54:26;;;;;;;3.75;1.40;;;;;;;;;;5067716;28;20523;-58
2022/09/21 00:56:53;;;;;;;8.40;1.77;;;;;;;;;;5067130;28;20475;-57
2022/09/21 00:59:19;;;;;;;4.40;1.50;;;;;;;;;;5066864;28;20093;-57
2022/09/21 01:01:46;;;;;;;4.50;1.58;;;;;;;;;;5066464;28;20493;-57
2022/09/21 01:04:12;;;;;;;1.88;1.13;;;;;;;;;;5067752;28;20053;-57
2022/09/21 01:06:39;;;;;;;3.47;0.90;;;;;;;;;;5065175;28;20062;-57
2022/09/21 01:09:06;;;;;;;1.48;0.73;;;;;;;;;;5086340;28;20075;-57
2022/09/21 01:11:38;;;;;;;2.45;1.02;;;;;;;;;;5052160;28;20135;-58
2022/09/21 01:14:11;;;;;;;3.38;1.00;;;;;;;;;;5066122;28;20069;-57
2022/09/21 01:16:40;;;;;;;2.13;0.90;;;;;;;;;;5066423;28;20115;-57
2022/09/21 01:19:30;;;;;;;3.92;0.93;;;;;;;;;;5067051;28;20052;-57
2022/09/21 01:22:15;;;;;;;1.92;1.00;;;;;;;;;;5066997;28;20048;-58
2022/09/21 01:24:51;;;;;;;10.65;1.98;;;;;;;;;;5067026;28;20048;-58
2022/09/21 01:27:34;;;;;;;5.63;1.00;;;;;;;;;;5066868;28;20059;-57
2022/09/21 01:30:05;;;;;;;3.30;0.98;;;;;;;;;;5067428;28;20483;-58
2022/09/21 01:32:35;;;;;;;2.10;1.05;;;;;;;;;;5066040;28;20542;-58
2022/09/21 01:35:05;;;;;;;1.50;0.70;;;;;;;;;;5071225;28;20437;-59
2022/09/21 01:37:37;;;;;;;4.53;1.02;;;;;;;;;;5071424;28;20079;-59
2022/09/21 01:40:06;;;;;;;3.33;1.10;;;;;;;;;;5071125;28;20041;-57
2022/09/21 01:42:34;;;;;;;4.25;0.82;;;;;;;;;;5071036;28;20044;-58
2022/09/21 01:45:03;;;;;;;3.53;1.00;;;;;;;;;;5071030;28;20559;-58
2022/09/21 01:47:30;;;;;;;4.65;1.08;;;;;;;;;;5070365;28;20052;-57
2022/09/21 01:49:59;;;;;;;5.78;0.90;;;;;;;;;;5071319;28;20062;-57
2022/09/21 01:52:29;;;;;;;4.45;1.40;;;;;;;;;;5071322;28;20048;-57
2022/09/21 01:55:00;;;;;;;2.60;1.02;;;;;;;;;;5070803;28;20049;-58
2022/09/21 01:57:32;;;;;;;4.80;1.00;;;;;;;;;;5052621;28;20047;-58
2022/09/21 01:59:59;;;;;;;5.57;1.80;;;;;;;;;;5071011;28;20040;-57
2022/09/21 02:02:32;;;;;;;4.93;1.70;;;;;;;;;;5070203;28;20063;-57
2022/09/21 02:05:00;;;;;;;3.30;1.42;;;;;;;;;;5070862;28;20080;-57
2022/09/21 02:07:27;;;;;;;3.20;1.30;;;;;;;;;;5070571;28;20044;-58
2022/09/21 02:09:54;;;;;;;3.80;1.20;;;;;;;;;;5069901;28;20133;-58
2022/09/21 02:12:20;;;;;;;5.18;1.50;;;;;;;;;;5084305;28;20045;-57
2022/09/21 02:14:47;;;;;;;3.13;1.50;;;;;;;;;;5070266;28;20094;-58
2022/09/21 02:17:24;;;;;;;2.95;1.50;;;;;;;;;;5069268;28;20052;-57
2022/09/21 02:20:05;;;;;;;9.60;1.52;;;;;;;;;;5070023;28;20044;-57
2022/09/21 02:22:35;;;;;;;4.90;1.40;;;;;;;;;;5070330;28;20037;-59
2022/09/21 02:25:07;;;;;;;1.63;0.93;;;;;;;;;;5070767;28;20127;-58
2022/09/21 02:27:37;;;;;;;4.80;1.10;;;;;;;;;;5070033;28;20034;-57
2022/09/21 02:30:13;;;;;;;6.40;0.93;;;;;;;;;;5069894;28;20044;-58
2022/09/21 02:32:39;;;;;;;3.28;1.00;;;;;;;;;;5069025;28;20116;-57
2022/09/21 02:35:10;;;;;;;2.13;1.30;;;;;;;;;;5051876;28;20072;-57
2022/09/21 02:37:37;;;;;;;6.18;0.95;;;;;;;;;;5069752;28;20040;-58
2022/09/21 02:40:13;;;;;;;2.88;1.08;;;;;;;;;;5069781;28;20047;-58
2022/09/21 02:42:41;;;;;;;1.92;1.10;;;;;;;;;;5069785;28;20041;-58
2022/09/21 02:45:10;;;;;;;2.47;1.00;;;;;;;;;;5069693;28;20051;-57
2022/09/21 02:47:42;;;;;;;1.42;0.70;;;;;;;;;;5068685;28;20051;-58
2022/09/21 02:50:13;;;;;;;3.55;0.73;;;;;;;;;;5069528;28;20053;-56
2022/09/21 02:52:40;;;;;;;1.58;0.75;;;;;;;;;;5069756;28;20036;-58
2022/09/21 02:55:07;;;;;;;1.77;1.10;;;;;;;;;;5069692;28;20036;-58
2022/09/21 02:57:34;;;;;;;2.47;1.27;;;;;;;;;;5069679;28;20064;-58
2022/09/21 03:00:01;;;;;;;4.10;0.80;;;;;;;;;;5070049;28;20052;-58
2022/09/21 03:02:40;;;;;;;1.73;1.00;;;;;;;;;;5069068;28;20045;-58
2022/09/21 03:05:07;;;;;;;1.75;0.90;;;;;;;;;;5069562;28;20501;-56
2022/09/21 03:07:33;;;;;;;5.18;1.00;;;;;;;;;;5069211;28;20048;-59
2022/09/21 03:09:59;;;;;;;1.60;0.90;;;;;;;;;;5069433;28;20135;-58
2022/09/21 03:12:25;;;;;;;7.00;1.58;;;;;;;;;;5069406;28;20390;-57
2022/09/21 03:14:52;;;;;;;3.97;1.15;;;;;;;;;;5068941;28;20099;-57
2022/09/21 03:17:18;;;;;;;2.08;1.10;;;;;;;;;;5068567;28;20182;-58
2022/09/21 03:19:44;;;;;;;1.83;1.00;;;;;;;;;;5069143;28;20049;-58
2022/09/21 03:22:11;;;;;;;2.08;0.88;;;;;;;;;;5069240;28;20055;-57
2022/09/21 03:24:44;;;;;;;1.83;0.80;;;;;;;;;;5069166;28;20040;-56
2022/09/21 03:27:10;;;;;;;1.88;0.80;;;;;;;;;;5069316;28;20097;-57
2022/09/21 03:29:36;;;;;;;1.10;0.80;;;;;;;;;;5069001;28;20051;-58
2022/09/21 03:32:02;;;;;;;5.05;1.00;;;;;;;;;;5082058;28;20050;-58
2022/09/21 03:34:30;;;;;;;1.75;0.80;;;;;;;;;;5052008;28;20044;-58
2022/09/21 03:36:56;;;;;;;2.17;1.02;;;;;;;;;;5068964;28;20085;-58
2022/09/21 03:39:22;;;;;;;2.42;1.05;;;;;;;;;;5068618;28;20047;-58
2022/09/21 03:41:49;;;;;;;1.65;1.10;;;;;;;;;;5068553;28;20036;-58
2022/09/21 03:44:16;;;;;;;1.20;0.80;;;;;;;;;;5069151;28;20044;-57
2022/09/21 03:46:43;;;;;;;3.17;1.25;;;;;;;;;;5067811;28;20686;-57
2022/09/21 03:49:09;;;;;;;4.15;1.10;;;;;;;;;;5068604;28;20478;-56
2022/09/21 03:51:35;;;;;;;2.28;1.20;;;;;;;;;;5068683;28;20055;-58
2022/09/21 03:54:01;;;;;;;2.78;1.00;;;;;;;;;;5068578;28;20056;-58
2022/09/21 03:56:27;;;;;;;3.60;0.80;;;;;;;;;;5068052;28;20127;-57
2022/09/21 03:58:53;;;;;;;2.70;1.13;;;;;;;;;;5068533;28;20040;-57
2022/09/21 04:01:19;;;;;;;2.13;1.00;;;;;;;;;;5067485;28;20101;-57
2022/09/21 04:03:46;;;;;;;4.80;1.00;;;;;;;;;;5068002;28;20110;-58
2022/09/21 04:06:12;;;;;;;6.03;1.38;;;;;;;;;;5068487;28;20037;-58
2022/09/21 04:08:39;;;;;;;5.57;1.20;;;;;;;;;;5081362;28;20044;-58
2022/09/21 04:11:16;;;;;;;6.80;1.50;;;;;;;;;;5068192;28;20098;-57
2022/09/21 04:13:42;;;;;;;4.53;1.38;;;;;;;;;;5068090;28;20042;-57
2022/09/21 04:16:09;;;;;;;5.35;2.35;;;;;;;;;;5067249;28;20052;-57
2022/09/21 04:18:36;;;;;;;3.17;1.33;;;;;;;;;;5067075;28;20052;-57
2022/09/21 04:21:04;;;;;;;2.20;1.40;;;;;;;;;;5068172;28;20048;-58
2022/09/21 04:23:30;;;;;;;6.97;1.83;;;;;;;;;;5068117;28;20037;-57
2022/09/21 04:25:56;;;;;;;2.80;1.25;;;;;;;;;;5067889;28;20041;-57
2022/09/21 04:28:23;;;;;;;1.23;0.65;;;;;;;;;;5068143;28;20040;-58
2022/09/21 04:30:53;;;;;;;1.50;0.82;;;;;;;;;;5062636;28;20112;-58
2022/09/21 04:33:19;;;;;;;2.08;0.77;;;;;;;;;;5050187;28;20044;-57
2022/09/21 04:35:45;;;;;;;2.00;1.13;;;;;;;;;;5067612;28;20129;-57
2022/09/21 04:38:12;;;;;;;2.45;1.00;;;;;;;;;;5068089;28;20068;-57
2022/09/21 04:40:38;;;;;;;4.07;1.23;;;;;;;;;;5067631;28;20093;-58
2022/09/21 04:43:05;;;;;;;3.13;1.17;;;;;;;;;;5067843;28;20051;-57
2022/09/21 04:45:31;;;;;;;4.70;1.40;;;;;;;;;;5067776;28;20044;-57
2022/09/21 04:47:57;;;;;;;9.02;1.40;;;;;;;;;;5067216;28;20097;-57
2022/09/21 04:50:23;;;;;;;3.30;1.17;;;;;;;;;;5067927;28;20097;-57
2022/09/21 04:52:49;;;;;;;2.85;1.10;;;;;;;;;;5067498;28;20079;-57
2022/09/21 04:55:16;;;;;;;2.17;1.20;;;;;;;;;;5067852;28;20052;-56
2022/09/21 04:57:43;;;;;;;3.80;1.20;;;;;;;;;;5066782;28;20040;-58
2022/09/21 05:00:09;;;;;;;3.38;1.50;;;;;;;;;;5067636;28;20119;-57
2022/09/21 05:02:35;;;;;;;9.75;1.60;;;;;;;;;;5048597;28;20051;-57
2022/09/21 05:05:02;;;;;;;4.55;1.30;;;;;;;;;;5066994;28;20154;-58
2022/09/21 05:07:28;;;;;;;2.50;1.10;;;;;;;;;;5067104;28;20036;-57
2022/09/21 05:10:01;;;;;;;3.78;1.50;;;;;;;;;;5066603;28;20040;-58
2022/09/21 05:12:27;;;;;;;11.00;2.72;;;;;;;;;;5067874;28;20040;-58
2022/09/21 05:14:54;;;;;;;3.85;1.85;;;;;;;;;;5067360;28;20047;-57
2022/09/21 05:17:21;;;;;;;6.82;1.45;;;;;;;;;;5066171;28;20053;-57
2022/09/21 05:19:48;;;;;;;3.72;1.45;;;;;;;;;;5066976;28;20052;-57
2022/09/21 05:22:15;;;;;;;5.68;1.95;;;;;;;;;;5067266;28;21040;-57
2022/09/21 05:24:41;;;;;;;11.45;1.85;;;;;;;;;;5066776;28;20062;-57
2022/09/21 05:27:07;;;;;;;4.75;1.70;;;;;;;;;;5067333;28;20040;-58
2022/09/21 05:29:33;;;;;;;6.10;1.77;;;;;;;;;;5067158;28;20045;-58
2022/09/21 05:32:05;;;;;;;9.00;1.55;;;;;;;;;;5066647;28;20044;-57
2022/09/21 05:34:38;;;;;;;4.00;1.80;;;;;;;;;;5072668;28;20118;-60
2022/09/21 05:37:10;;;;;;;14.77;2.10;;;;;;;;;;5056082;28;20060;-57
2022/09/21 05:39:36;;;;;;;7.60;1.70;;;;;;;;;;5066622;28;20044;-58
2022/09/21 05:42:03;;;;;;;7.20;1.80;;;;;;;;;;5067200;28;20040;-57
2022/09/21 05:44:29;;;;;;;7.03;1.63;;;;;;;;;;5067154;28;20597;-57
2022/09/21 05:46:55;;;;;;;4.32;1.20;;;;;;;;;;5071150;28;20036;-58
2022/09/21 05:49:22;;;;;;;5.82;1.25;;;;;;;;;;5079115;28;20309;-58
2022/09/21 05:51:52;;;;;;;5.13;1.10;;;;;;;;;;5083397;28;20052;-57
2022/09/21 05:54:25;;;;;;;4.28;1.50;;;;;;;;;;5083949;28;20075;-58
2022/09/21 05:56:55;;;;;;;5.53;1.50;;;;;;;;;;5081737;28;20051;-56
2022/09/21 05:59:21;;;;;;;2.65;1.10;;;;;;;;;;5086000;28;20110;-58
2022/09/21 06:01:47;;;;;;;5.85;1.20;;;;;;;;;;5084036;28;20102;-58
2022/09/21 06:04:13;;;;;;;6.47;1.40;;;;;;;;;;5083946;28;20040;-58
2022/09/21 06:06:40;;;;;;;1.48;0.88;;;;;;;;;;5068424;28;20491;-58
2022/09/21 06:09:06;;;;;;;3.33;1.20;;;;;;;;;;5071107;28;20055;-57
2022/09/21 06:11:32;;;;;;;3.65;1.35;;;;;;;;;;5076745;28;20095;-59
2022/09/21 06:14:00;;;;;;;7.72;1.25;;;;;;;;;;5075511;28;20120;-58
2022/09/21 06:16:26;;;;;;;3.33;1.20;;;;;;;;;;5076757;28;20048;-58
2022/09/21 06:18:52;;;;;;;4.72;1.00;;;;;;;;;;5074334;28;20109;-58
2022/09/21 06:21:18;;;;;;;2.20;1.00;;;;;;;;;;5081994;28;20039;-57
2022/09/21 06:23:45;;;;;;;2.45;1.17;;;;;;;;;;5081211;28;20062;-58
2022/09/21 06:26:11;;;;;;;3.20;0.90;;;;;;;;;;5082940;28;20052;-58
2022/09/21 06:28:37;;;;;;;2.05;0.95;;;;;;;;;;5081764;28;20039;-58
2022/09/21 06:31:03;;;;;;;2.70;1.55;;;;;;;;;;5081349;28;20127;-57
2022/09/21 06:33:29;;;;;;;3.90;1.08;;;;;;;;;;5086174;28;20139;-58
2022/09/21 06:35:56;;;;;;;3.90;1.35;;;;;;;;;;5085046;28;20048;-57
2022/09/21 06:38:23;;;;;;;5.97;1.40;;;;;;;;;;5084440;28;20746;-58
2022/09/21 06:40:51;;;;;;;5.15;1.40;;;;;;;;;;5081220;28;20102;-57
2022/09/21 06:43:17;;;;;;;5.70;1.13;;;;;;;;;;5084760;28;20115;-58
2022/09/21 06:45:44;;;;;;;4.82;1.20;;;;;;;;;;5081063;28;20059;-58
2022/09/21 06:48:10;;;;;;;2.78;1.20;;;;;;;;;;5081852;28;20138;-58
2022/09/21 06:50:36;;;;;;;3.42;1.13;;;;;;;;;;5083994;28;20563;-58
2022/09/21 06:53:02;;;;;;;5.07;1.58;;;;;;;;;;5085429;28;20050;-57
2022/09/21 06:55:30;;;;;;;5.00;1.42;;;;;;;;;;5085312;28;20040;-59
2022/09/21 06:58:01;;;;;;;3.05;1.55;;;;;;;;;;5084208;28;20059;-58
2022/09/21 07:00:28;;;;;;;4.32;1.88;;;;;;;;;;5083502;28;20040;-57
2022/09/21 07:02:54;;;;;;;2.53;1.52;;;;;;;;;;5083592;28;20230;-58
2022/09/21 07:05:20;;;;;;;5.65;1.60;;;;;;;;;;5084116;28;20075;-58
2022/09/21 07:07:46;;;;;;;3.70;1.40;;;;;;;;;;5083600;28;20043;-58
2022/09/21 07:10:12;;;;;;;3.80;2.05;;;;;;;;;;5087069;28;20048;-57
2022/09/21 07:12:38;;;;;;;5.13;1.27;;;;;;;;;;5088825;28;20036;-58
2022/09/21 07:15:05;;;;;;;4.80;1.50;;;;;;;;;;5088607;28;20044;-58
2022/09/21 07:17:32;;;;;;;8.70;1.52;;;;;;;;;;5086751;28;20044;-60
2022/09/21 07:20:00;;;;;;;5.47;1.40;;;;;;;;;;5088983;28;20035;-58
2022/09/21 07:22:27;;;;;;;2.33;1.65;;;;;;;;;;5084853;28;20055;-58
2022/09/21 07:24:53;;;;;;;4.37;1.60;;;;;;;;;;5088107;28;20040;-58
2022/09/21 07:27:20;;;;;;;5.80;1.80;;;;;;;;;;5086815;28;20123;-58
2022/09/21 07:29:46;;;;;;;10.02;2.00;;;;;;;;;;5087537;28;20374;-58
2022/09/21 07:32:12;;;;;;;2.53;1.40;;;;;;;;;;5085974;28;20202;-58
2022/09/21 07:34:38;;;;;;;3.25;1.45;;;;;;;;;;5083063;28;20036;-58
2022/09/21 07:37:05;;;;;;;4.00;1.90;;;;;;;;;;5086870;28;20052;-58
2022/09/21 07:39:31;;;;;;;4.88;1.80;;;;;;;;;;5088341;28;20119;-58
2022/09/21 07:41:57;;;;;;;7.97;2.47;;;;;;;;;;5088328;28;20060;-58
2022/09/21 07:44:23;;;;;;;5.45;2.05;;;;;;;;;;5086439;28;20471;-58
2022/09/21 07:46:50;;;;;;;13.75;4.65;;;;;;;;;;5086878;28;20064;-58
2022/09/21 07:49:16;;;;;;;4.65;2.25;;;;;;;;;;5082436;28;20048;-58
2022/09/21 07:51:42;;;;;;;8.20;2.30;;;;;;;;;;5087969;28;20043;-58
2022/09/21 07:54:09;;;;;;;9.38;1.85;;;;;;;;;;5085399;28;20083;-58
2022/09/21 07:56:36;;;;;;;9.50;3.25;;;;;;;;;;5085965;28;20397;-58
2022/09/21 07:59:10;;;;;;;6.63;2.20;;;;;;;;;;5088240;28;20085;-59
2022/09/21 08:01:37;;;;;;;9.10;2.00;;;;;;;;;;5083872;28;20093;-58
2022/09/21 08:04:04;;;;;;;10.88;2.20;;;;;;;;;;5087607;28;20156;-57
2022/09/21 08:06:31;;;;;;;8.23;2.38;;;;;;;;;;5083348;28;20036;-58
2022/09/21 08:08:58;;;;;;;12.23;2.87;;;;;;;;;;5087816;28;20477;-58
2022/09/21 08:11:26;;;;;;;9.43;2.10;;;;;;;;;;5083224;28;20298;-58
2022/09/21 08:13:53;;;;;;;6.65;1.73;;;;;;;;;;5085610;28;20591;-58
2022/09/21 08:16:19;;;;;;;16.35;2.50;;;;;;;;;;5068900;28;20708;-57
2022/09/21 08:18:45;;;;;;;19.45;1.98;;;;;;;;;;5082691;28;20044;-58
2022/09/21 08:21:13;;;;;;;8.75;1.50;;;;;;;;;;5070022;28;20493;-58
2022/09/21 08:23:41;;;;;;;6.10;1.17;;;;;;;;;;5083819;28;20485;-58
2022/09/21 08:26:08;;;;;;;8.82;2.75;;;;;;;;;;5085856;28;20048;-58
2022/09/21 08:28:35;;;;;;;3.70;1.13;;;;;;;;;;5065317;28;20032;-59
2022/09/21 08:31:02;;;;;;;7.72;1.45;;;;;;;;;;5083009;28;20040;-59
2022/09/21 08:33:28;;;;;;;7.20;1.30;;;;;;;;;;5087994;28;20139;-58
2022/09/21 08:35:55;;;;;;;12.70;1.30;;;;;;;;;;5082369;28;20045;-58
2022/09/21 08:38:21;;;;;;;9.15;1.70;;;;;;;;;;5087030;28;20086;-58
2022/09/21 08:40:48;;;;;;;6.38;1.38;;;;;;;;;;5067569;28;20044;-58
2022/09/21 08:43:21;;;;;;;8.70;1.50;;;;;;;;;;5085504;28;20059;-58
2022/09/21 08:45:47;;;;;;;5.20;1.30;;;;;;;;;;5085278;28;20044;-57
2022/09/21 08:48:18;;;;;;;5.95;1.30;;;;;;;;;;5083977;28;20039;-58
2022/09/21 08:50:47;;;;;;;7.15;0.95;;;;;;;;;;5085825;28;20044;-58
2022/09/21 08:53:16;;;;;;;4.93;0.98;;;;;;;;;;5081104;28;20044;-58
2022/09/21 08:55:42;;;;;;;8.43;0.98;;;;;;;;;;5085641;28;20040;-58
2022/09/21 08:58:16;;;;;;;7.57;1.02;;;;;;;;;;5084249;28;20502;-58
2022/09/21 09:00:42;;;;;;;9.75;1.50;;;;;;;;;;5084176;28;20028;-57
2022/09/21 09:03:33;;;;;;;7.70;1.10;;;;;;;;;;5084079;28;20040;-58
2022/09/21 09:06:01;;;;;;;16.52;2.15;;;;;;;;;;5086166;28;20505;-58
2022/09/21 09:08:46;;;;;;;4.50;1.08;;;;;;;;;;5083375;28;20040;-58
2022/09/21 09:11:24;;;;;;;5.13;0.90;;;;;;;;;;5085494;28;20516;-58
2022/09/21 09:14:10;;;;;;;5.55;1.65;;;;;;;;;;5080644;28;20124;-58
2022/09/21 09:16:56;;;;;;;7.03;1.10;;;;;;;;;;5083547;28;20040;-58
2022/09/21 09:19:22;;;;;;;6.88;1.10;;;;;;;;;;5086103;28;20398;-58
2022/09/21 09:21:48;;;;;;;10.02;1.00;;;;;;;;;;5084190;28;20040;-58
2022/09/21 09:24:18;;;;;;;10.82;1.40;;;;;;;;;;5085669;28;20128;-58
2022/09/21 09:26:51;;;;;;;6.18;0.77;;;;;;;;;;5083248;28;20094;-58
2022/09/21 09:29:31;;;;;;;8.40;1.58;;;;;;;;;;5084013;28;20036;-58
2022/09/21 09:31:58;;;;;;;7.75;1.20;;;;;;;;;;5082278;28;20040;-57
2022/09/21 09:34:29;;;;;;;6.80;0.63;;;;;;;;;;5082963;28;20039;-58
2022/09/21 09:37:01;;;;;;;2.65;0.75;;;;;;;;;;5086236;28;20048;-58
2022/09/21 09:39:29;;;;;;;6.95;0.50;;;;;;;;;;5081857;28;20039;-57
2022/09/21 09:41:56;;;;;;;;;;;;;;;;;;5085755;28;20075;-57
2022/09/21 09:44:22;;;;;;;2.80;0.40;;;;;;;;;;5083963;28;19939;-58
2022/09/21 09:46:56;;;;;;;6.18;0.70;;;;;;;;;;5066617;28;20111;-58
2022/09/21 09:49:23;;;;;;;7.60;0.60;;;;;;;;;;5084192;28;20548;-58
2022/09/21 09:51:50;;;;;;;6.35;0.50;;;;;;;;;;5084437;28;20155;-58
2022/09/21 09:54:18;;;;;;;1.75;0.30;;;;;;;;;;5087235;28;20040;-58
2022/09/21 09:56:44;;;;;;;2.80;0.50;;;;;;;;;;5088801;28;20504;-58
2022/09/21 09:59:14;;;;;;;5.93;0.40;;;;;;;;;;5090363;28;20028;-57
2022/09/21 10:01:42;;;;;;;4.75;0.47;;;;;;;;;;5086547;28;20127;-58
2022/09/21 10:04:09;;;;;;;4.20;0.60;;;;;;;;;;5089896;28;20443;-58
2022/09/21 10:06:37;;;;;;;6.75;0.50;;;;;;;;;;5088028;28;20112;-58
2022/09/21 10:09:22;;;;;;;4.75;0.80;;;;;;;;;;5089393;28;20043;-58
2022/09/21 10:11:49;;;;;;;3.83;0.65;;;;;;;;;;5087999;28;20083;-58
2022/09/21 10:14:18;;;;;;;6.63;0.40;;;;;;;;;;5089954;28;20131;-57
2022/09/21 10:16:45;;;;;;;;;;;;;;;;;;5089293;28;20040;-58
2022/09/21 10:19:19;;;;;;;6.40;0.57;;;;;;;;;;5086764;28;19942;-58
2022/09/21 10:21:46;;;;;;;1.85;0.32;;;;;;;;;;5089185;28;20040;-58
2022/09/21 10:24:20;;;;;;;3.97;0.38;;;;;;;;;;5086716;28;20140;-58
2022/09/21 10:26:48;;;;;;;6.20;0.70;;;;;;;;;;5088905;28;20047;-57
2022/09/21 10:29:20;;;;;;;6.97;0.50;;;;;;;;;;5085233;28;20048;-58
2022/09/21 10:31:56;;;;;;;7.18;1.10;;;;;;;;;;5087763;28;20554;-57
2022/09/21 10:34:22;;;;;;;5.05;0.30;;;;;;;;;;5086741;28;20124;-58
2022/09/21 10:36:50;;;;;;;5.00;0.40;;;;;;;;;;5088326;28;20044;-58
2022/09/21 10:39:19;;;;;;;5.03;0.82;;;;;;;;;;5086824;28;20521;-58
2022/09/21 10:41:52;;;;;;;3.20;0.30;;;;;;;;;;5084937;28;20050;-58
2022/09/21 10:44:20;;;;;;;6.30;0.50;;;;;;;;;;5085930;28;20052;-58
2022/09/21 10:46:47;;;;;;;7.25;0.70;;;;;;;;;;5087969;28;20054;-58
2022/09/21 10:49:18;;;;;;;3.42;0.82;;;;;;;;;;5087112;28;20051;-58
2022/09/21 10:51:45;;;;;;;3.10;0.20;;;;;;;;;;5085438;28;20040;-58
2022/09/21 10:54:16;;;;;;;3.03;0.50;;;;;;;;;;5084554;28;20089;-58
2022/09/21 10:56:50;;;;;;;4.88;0.50;;;;;;;;;;5086020;28;20078;-58
2022/09/21 10:59:24;;;;;;;2.63;0.25;;;;;;;;;;5088648;28;20048;-58
2022/09/21 11:01:52;;;;;;;3.17;0.50;;;;;;;;;;5087616;28;20044;-58
2022/09/21 11:04:23;;;;;;;2.97;0.32;;;;;;;;;;5086916;28;20119;-58
2022/09/21 11:06:52;;;;;;;3.58;1.05;;;;;;;;;;5088571;28;20040;-58
2022/09/21 11:09:18;;;;;;;5.90;0.40;;;;;;;;;;5088447;28;20040;-58
2022/09/21 11:11:52;;;;;;;3.50;0.50;;;;;;;;;;5085597;28;20040;-58
2022/09/21 11:14:21;;;;;;;4.30;0.40;;;;;;;;;;5084295;28;20089;-58
2022/09/21 11:16:54;;;;;;;3.95;0.30;;;;;;;;;;5080234;28;20987;-58
2022/09/21 11:19:24;;;;;;;2.28;0.30;;;;;;;;;;5086514;28;20055;-58
2022/09/21 11:21:54;;;;;;;5.03;0.43;;;;;;;;;;5082933;28;20083;-57
2022/09/21 11:24:21;;;;;;;5.35;0.38;;;;;;;;;;5083183;28;20489;-58
2022/09/21 11:26:58;;;;;;;5.15;0.77;;;;;;;;;;5083627;28;20040;-58
2022/09/21 11:29:38;;;;;;;6.05;0.35;;;;;;;;;;5085753;28;20043;-58
2022/09/21 11:32:10;;;;;;;6.65;0.57;;;;;;;;;;5085882;28;20048;-58
2022/09/21 11:34:46;;;;;;;3.13;0.38;;;;;;;;;;5084227;28;20181;-58
2022/09/21 11:37:18;;;;;;;2.95;0.60;;;;;;;;;;5085802;28;20047;-58
2022/09/21 11:39:45;;;;;;;4.38;0.20;;;;;;;;;;5085221;28;20043;-58
2022/09/21 11:42:24;;;;;;;4.15;0.68;;;;;;;;;;5085079;28;20043;-57
2022/09/21 11:44:54;;;;;;;5.03;0.45;;;;;;;;;;5081907;28;20048;-58
2022/09/21 11:47:35;;;;;;;4.57;0.52;;;;;;;;;;5086888;28;20529;-58
2022/09/21 11:50:14;;;;;;;3.63;0.50;;;;;;;;;;5086893;28;20047;-58
2022/09/21 11:52:47;;;;;;;3.88;0.50;;;;;;;;;;5087769;28;20051;-57
2022/09/21 11:55:21;;;;;;;3.75;0.50;;;;;;;;;;5088466;28;20055;-58
2022/09/21 11:57:49;;;;;;;2.83;0.50;;;;;;;;;;5084157;28;20047;-57
2022/09/21 12:00:20;;;;;;;6.18;0.80;;;;;;;;;;5087230;28;20044;-58
2022/09/21 12:02:52;;;;;;;1.58;0.50;;;;;;;;;;5085747;28;20168;-58
2022/09/21 12:05:21;;;;;;;7.13;0.77;;;;;;;;;;5088639;28;20136;-58
2022/09/21 12:07:49;;;;;;;1.23;0.35;;;;;;;;;;5087566;28;20512;-58
2022/09/21 12:10:15;;;;;;;4.38;0.40;;;;;;;;;;5087523;28;20044;-58
2022/09/21 12:12:41;;;;;;;3.55;0.35;;;;;;;;;;5087479;28;20086;-58
2022/09/21 12:15:20;;;;;;;3.42;0.40;;;;;;;;;;5083817;28;20102;-58
2022/09/21 12:17:54;;;;;;;5.43;0.52;;;;;;;;;;5086294;28;20139;-58
2022/09/21 12:20:27;;;;;;;6.25;0.40;;;;;;;;;;5087082;28;20123;-58
2022/09/21 12:22:58;;;;;;;4.22;0.35;;;;;;;;;;5087034;28;20036;-58
2022/09/21 12:25:35;;;;;;;5.85;0.52;;;;;;;;;;5083090;28;20074;-58
2022/09/21 12:28:12;;;;;;;2.55;0.30;;;;;;;;;;5086923;28;21463;-58
2022/09/21 12:30:41;;;;;;;6.70;0.55;;;;;;;;;;5082687;28;20105;-58
2022/09/21 12:33:13;;;;;;;2.22;0.20;;;;;;;;;;5083860;28;20040;-58
2022/09/21 12:35:42;;;;;;;5.10;0.57;;;;;;;;;;5058116;28;20050;-58
2022/09/21 12:38:15;;;;;;;2.53;0.30;;;;;;;;;;5081271;28;20389;-58
2022/09/21 12:40:51;;;;;;;1.98;0.30;;;;;;;;;;5075147;28;20115;-57
2022/09/21 12:43:26;;;;;;;7.63;0.30;;;;;;;;;;5076168;28;20040;-57
2022/09/21 12:45:55;;;;;;;3.60;0.20;;;;;;;;;;5077494;28;20105;-58
2022/09/21 12:48:22;;;;;;;5.63;0.45;;;;;;;;;;5069793;28;20562;-57
2022/09/21 12:50:53;;;;;;;4.15;0.40;;;;;;;;;;5072830;28;20052;-58
2022/09/21 12:53:24;;;;;;;5.85;0.30;;;;;;;;;;5071665;28;20051;-58
2022/09/21 12:55:57;;;;;;;5.95;0.40;;;;;;;;;;5078821;28;20048;-58
2022/09/21 12:58:37;;;;;;;3.00;0.40;;;;;;;;;;5070828;28;20139;-58
2022/09/21 13:01:09;;;;;;;2.40;0.30;;;;;;;;;;5065626;28;20098;-58
2022/09/21 13:03:49;;;;;;;5.20;0.47;;;;;;;;;;5071102;28;20072;-58
2022/09/21 13:06:30;;;;;;;5.40;0.43;;;;;;;;;;5071581;28;20084;-58
2022/09/21 13:08:59;;;;;;;6.13;0.55;;;;;;;;;;5068499;28;20119;-58
2022/09/21 13:11:25;;;;;;;16.25;4.50;;;;;;;;;;5071072;28;20044;-58
2022/09/21 13:13:58;;;;;;;5.88;1.17;;;;;;;;;;5068562;28;20589;-58
2022/09/21 13:16:25;;;;;;;5.03;0.88;;;;;;;;;;5067325;28;20615;-58
2022/09/21 13:18:55;;;;;;;6.50;0.70;;;;;;;;;;5070849;28;20083;-58
2022/09/21 13:21:26;;;;;;;15.13;5.30;;;;;;;;;;5073598;28;20097;-58
2022/09/21 13:23:57;;;;;;;14.63;4.35;;;;;;;;;;5067517;28;20049;-58
2022/09/21 13:26:41;;;;;;;1.35;0.40;;;;;;;;;;5071819;28;20041;-58
2022/09/21 13:29:17;;;;;;;5.47;2.53;;;;;;;;;;5084173;28;20055;-58
2022/09/21 13:31:58;;;;;;;4.68;0.40;;;;;;;;;;5083865;28;20051;-58
2022/09/21 13:34:33;;;;;;;5.50;0.40;;;;;;;;;;5084538;28;20044;-57
2022/09/21 13:37:10;;;;;;;4.22;0.35;;;;;;;;;;5084606;28;20047;-58
2022/09/21 13:39:45;;;;;;;3.92;0.32;;;;;;;;;;5084152;28;20044;-56
2022/09/21 13:42:29;;;;;;;10.80;1.30;;;;;;;;;;5084598;28;20474;-58
2022/09/21 13:44:57;;;;;;;6.88;0.50;;;;;;;;;;5079967;28;20048;-58
2022/09/21 13:47:31;;;;;;;3.33;0.50;;;;;;;;;;5081928;28;20049;-58
2022/09/21 13:49:57;;;;;;;5.75;0.40;;;;;;;;;;5080057;28;20555;-59
2022/09/21 13:52:26;;;;;;;7.20;0.55;;;;;;;;;;5073232;28;20080;-57
2022/09/21 13:54:52;;;;;;;5.03;0.40;;;;;;;;;;5075370;28;20044;-57
2022/09/21 13:57:27;;;;;;;3.60;0.43;;;;;;;;;;5077612;28;20036;-57
2022/09/21 14:00:09;;;;;;;11.15;4.18;;;;;;;;;;5074099;28;20044;-56
2022/09/21 14:02:37;;;;;;;1.80;0.30;;;;;;;;;;5082141;28;20481;-57
2022/09/21 14:05:18;;;;;;;2.65;0.30;;;;;;;;;;5083002;28;20093;-58
2022/09/21 14:07:45;;;;;;;1.52;0.40;;;;;;;;;;5079013;28;20040;-56
2022/09/21 14:10:18;;;;;;;3.17;0.63;;;;;;;;;;5080810;28;20048;-56
2022/09/21 14:12:45;;;;;;;3.00;0.47;;;;;;;;;;5078884;28;20051;-57
2022/09/21 14:15:30;;;;;;;4.20;0.55;;;;;;;;;;5078839;28;20052;-57
2022/09/21 14:18:17;;;;;;;5.63;0.50;;;;;;;;;;5078321;28;20063;-56
2022/09/21 14:21:02;;;;;;;5.93;0.40;;;;;;;;;;5081703;28;20055;-57
2022/09/21 14:23:28;;;;;;;3.50;0.50;;;;;;;;;;5084332;28;20046;-57
2022/09/21 14:25:57;;;;;;;5.57;0.40;;;;;;;;;;5083490;28;20032;-56
2022/09/21 14:28:38;;;;;;;2.45;0.40;;;;;;;;;;5084324;28;20048;-57
2022/09/21 14:31:08;;;;;;;6.82;0.40;;;;;;;;;;5075303;28;20143;-57
2022/09/21 14:33:42;;;;;;;4.05;0.68;;;;;;;;;;5077724;28;20047;-57
2022/09/21 14:36:09;;;;;;;6.70;0.65;;;;;;;;;;5066993;28;20055;-57
2022/09/21 14:38:42;;;;;;;3.35;0.40;;;;;;;;;;5080474;28;20051;-57
2022/09/21 14:41:08;;;;;;;4.05;0.52;;;;;;;;;;5085916;28;20037;-57
2022/09/21 14:43:36;;;;;;;15.82;2.00;;;;;;;;;;5070252;28;20138;-57
2022/09/21 14:46:09;;;;;;;8.25;0.95;;;;;;;;;;5086864;28;20052;-57
2022/09/21 14:48:42;;;;;;;3.20;0.40;;;;;;;;;;5086754;28;20157;-56
2022/09/21 14:51:27;;;;;;;10.30;0.60;;;;;;;;;;5087520;28;20054;-56
2022/09/21 14:53:54;;;;;;;3.20;0.35;;;;;;;;;;5086940;28;20044;-56
2022/09/21 14:56:37;;;;;;;5.20;0.83;;;;;;;;;;5087494;28;20087;-57